Time;durP1;ratioP1;P1;durP2;ratioP2;P2;SDS_P1;SDS_P2;PMS_P1;PMS_P2;Temp;Humidity;BMP_temperature;BMP_pressure;BME280_temperature;BME280_humidity;BME280_pressure;Samples;Min_cycle;Max_cycle;Signal;HPM_P1;HPM_P2
2021/09/17 00:00:14;;;;;;;2.90;1.70;;;18.30;99.90;;;;;;5013305;28;20166;-77
2021/09/17 00:02:40;;;;;;;3.47;2.07;;;18.30;99.90;;;;;;4995618;28;20189;-78
2021/09/17 00:05:06;;;;;;;4.40;1.60;;;18.30;99.90;;;;;;5013224;28;20668;-78
2021/09/17 00:07:32;;;;;;;4.80;1.77;;;18.30;99.90;;;;;;5012466;28;20539;-78
2021/09/17 00:09:58;;;;;;;3.33;2.00;;;18.30;99.90;;;;;;5013135;28;20572;-78
2021/09/17 00:12:24;;;;;;;3.67;1.60;;;18.30;99.90;;;;;;4995167;28;20625;-78
2021/09/17 00:14:50;;;;;;;2.23;1.87;;;18.30;99.90;;;;;;5013101;28;20565;-78
2021/09/17 00:17:17;;;;;;;4.30;2.13;;;18.30;99.90;;;;;;5011896;28;20190;-79
2021/09/17 00:19:43;;;;;;;3.13;1.73;;;18.30;99.90;;;;;;4995165;28;20656;-76
2021/09/17 00:22:09;;;;;;;3.77;1.40;;;18.30;99.90;;;;;;4979243;28;20602;-78
2021/09/17 00:24:34;;;;;;;4.53;1.50;;;18.20;99.90;;;;;;4995124;28;20182;-79
2021/09/17 00:27:00;;;;;;;2.47;1.70;;;18.20;99.90;;;;;;5012746;28;20579;-78
2021/09/17 00:29:26;;;;;;;2.93;1.93;;;18.20;99.90;;;;;;5012230;28;20248;-78
2021/09/17 00:31:52;;;;;;;2.90;1.57;;;18.20;99.90;;;;;;5012565;28;20597;-77
2021/09/17 00:34:18;;;;;;;2.87;1.80;;;18.20;99.90;;;;;;5012566;28;20592;-77
2021/09/17 00:36:44;;;;;;;3.77;1.93;;;18.10;99.90;;;;;;5012637;28;20169;-78
2021/09/17 00:39:13;;;;;;;3.53;1.67;;;18.10;99.90;;;;;;5012151;28;20201;-77
2021/09/17 00:41:43;;;;;;;3.00;2.00;;;18.10;99.90;;;;;;4979020;28;20170;-78
2021/09/17 00:44:09;;;;;;;5.93;1.70;;;18.00;99.90;;;;;;4994756;28;20573;-78
2021/09/17 00:46:35;;;;;;;5.00;2.07;;;18.00;99.90;;;;;;5012640;28;20946;-78
2021/09/17 00:49:01;;;;;;;4.07;1.70;;;17.90;99.90;;;;;;4994652;28;20606;-78
2021/09/17 00:51:27;;;;;;;2.60;1.43;;;17.90;99.90;;;;;;5012285;28;20570;-78
2021/09/17 00:53:52;;;;;;;3.90;1.47;;;17.90;99.90;;;;;;5012355;28;20236;-78
2021/09/17 00:56:19;;;;;;;2.50;1.87;;;17.90;99.90;;;;;;4994680;28;21202;-78
2021/09/17 00:58:45;;;;;;;2.47;1.90;;;17.80;99.90;;;;;;5012077;28;20313;-78
2021/09/17 01:01:11;;;;;;;4.33;1.80;;;17.90;99.90;;;;;;5012182;28;20996;-78
2021/09/17 01:03:38;;;;;;;6.50;2.40;;;17.90;99.90;;;;;;5012321;28;20566;-78
2021/09/17 01:06:04;;;;;;;4.93;2.07;;;17.90;99.90;;;;;;5011357;28;21072;-78
2021/09/17 01:08:32;;;;;;;5.20;2.40;;;17.90;99.90;;;;;;5010910;28;20627;-78
2021/09/17 01:10:59;;;;;;;7.40;2.60;;;17.90;99.90;;;;;;5004132;28;20569;-78
2021/09/17 01:13:27;;;;;;;3.60;2.60;;;17.90;99.90;;;;;;5003152;28;20634;-79
2021/09/17 01:15:53;;;;;;;4.97;3.00;;;18.00;99.90;;;;;;5011546;28;21198;-79
2021/09/17 01:18:18;;;;;;;3.30;2.90;;;18.00;99.90;;;;;;4993909;28;20605;-79
2021/09/17 01:20:44;;;;;;;5.40;3.60;;;18.00;99.90;;;;;;5012135;28;20565;-79
2021/09/17 01:23:10;;;;;;;9.67;4.23;;;18.10;99.90;;;;;;4994469;28;20188;-78
2021/09/17 01:25:36;;;;;;;7.23;4.30;;;18.10;99.90;;;;;;4994703;28;20585;-78
2021/09/17 01:28:02;;;;;;;5.10;4.33;;;18.10;99.90;;;;;;5011222;28;20186;-79
2021/09/17 01:30:28;;;;;;;7.50;4.33;;;18.10;99.90;;;;;;5012118;28;20170;-78
2021/09/17 01:32:54;;;;;;;4.80;4.27;;;18.20;99.90;;;;;;5011523;28;20617;-79
2021/09/17 01:35:21;;;;;;;5.43;4.07;;;18.20;99.90;;;;;;4994123;28;20193;-79
2021/09/17 01:37:48;;;;;;;7.87;4.67;;;18.20;99.90;;;;;;4993731;28;20609;-79
2021/09/17 01:40:15;;;;;;;8.47;5.30;;;18.20;99.90;;;;;;5011631;28;20593;-79
2021/09/17 01:42:42;;;;;;;5.00;4.50;;;18.30;99.90;;;;;;5011744;28;20576;-79
2021/09/17 01:45:10;;;;;;;8.10;4.90;;;18.30;99.90;;;;;;4993902;28;20581;-79
2021/09/17 01:47:35;;;;;;;5.67;5.17;;;18.30;99.90;;;;;;4993764;28;20688;-77
2021/09/17 01:50:02;;;;;;;6.80;4.73;;;18.20;99.90;;;;;;4994131;28;21152;-77
2021/09/17 01:52:27;;;;;;;6.37;5.77;;;18.20;99.90;;;;;;4993969;28;20214;-77
2021/09/17 01:54:53;;;;;;;7.33;6.20;;;18.20;99.90;;;;;;4977902;28;21115;-78
2021/09/17 01:57:19;;;;;;;9.00;5.63;;;18.20;99.90;;;;;;4994114;28;20210;-77
2021/09/17 01:59:44;;;;;;;6.97;6.07;;;18.20;99.90;;;;;;5010510;28;20172;-77
2021/09/17 02:02:13;;;;;;;6.57;5.97;;;18.20;99.90;;;;;;4993620;28;20228;-77
2021/09/17 02:04:39;;;;;;;8.40;7.63;;;18.20;99.90;;;;;;5011533;28;20531;-77
2021/09/17 02:07:05;;;;;;;9.70;6.67;;;18.20;99.90;;;;;;5010634;28;20600;-77
2021/09/17 02:09:31;;;;;;;8.50;7.00;;;18.20;99.90;;;;;;4993509;28;20589;-77
2021/09/17 02:11:56;;;;;;;8.70;7.20;;;18.20;99.90;;;;;;4993713;28;20182;-77
2021/09/17 02:14:22;;;;;;;8.30;7.50;;;18.20;99.90;;;;;;5011600;28;20207;-77
2021/09/17 02:16:48;;;;;;;10.20;9.20;;;18.30;99.90;;;;;;4977651;28;20174;-77
2021/09/17 02:19:13;;;;;;;9.63;8.43;;;18.30;99.90;;;;;;5011162;28;20685;-77
2021/09/17 02:21:39;;;;;;;10.50;8.60;;;18.30;99.90;;;;;;4993457;28;20586;-78
2021/09/17 02:24:06;;;;;;;10.70;9.60;;;18.30;99.90;;;;;;4977703;28;20174;-77
2021/09/17 02:26:32;;;;;;;9.17;8.23;;;18.30;99.90;;;;;;5011659;28;20581;-76
2021/09/17 02:28:58;;;;;;;10.07;8.50;;;18.30;99.90;;;;;;4977309;28;21205;-77
2021/09/17 02:31:23;;;;;;;9.63;8.73;;;18.30;99.90;;;;;;5012217;28;20197;-77
2021/09/17 02:33:53;;;;;;;10.37;8.13;;;18.40;99.90;;;;;;5011765;28;20298;-77
2021/09/17 02:36:19;;;;;;;9.80;8.60;;;18.30;99.90;;;;;;5011810;28;20174;-77
2021/09/17 02:38:45;;;;;;;10.30;9.30;;;18.40;99.90;;;;;;4993686;28;20624;-77
2021/09/17 02:41:10;;;;;;;10.33;9.33;;;18.40;99.90;;;;;;5014571;28;20535;-77
2021/09/17 02:43:36;;;;;;;11.37;10.20;;;18.40;99.90;;;;;;5014845;28;20545;-76
2021/09/17 02:46:02;;;;;;;9.70;8.70;;;18.40;99.90;;;;;;5013790;28;20534;-76
2021/09/17 02:48:28;;;;;;;10.00;9.03;;;18.40;99.90;;;;;;4997177;28;20198;-76
2021/09/17 02:50:54;;;;;;;11.53;8.63;;;18.40;99.90;;;;;;4997587;28;20921;-76
2021/09/17 02:53:20;;;;;;;10.90;9.83;;;18.40;99.90;;;;;;5014580;28;20660;-76
2021/09/17 02:55:45;;;;;;;10.27;9.17;;;18.40;99.90;;;;;;5015021;28;21041;-76
2021/09/17 02:58:12;;;;;;;10.73;9.73;;;18.40;99.90;;;;;;4997004;28;20669;-77
2021/09/17 03:00:41;;;;;;;9.30;8.40;;;18.40;99.90;;;;;;5014639;28;20577;-77
2021/09/17 03:03:07;;;;;;;11.43;10.23;;;18.40;99.90;;;;;;4980579;28;20669;-76
2021/09/17 03:05:33;;;;;;;11.50;10.07;;;18.50;99.90;;;;;;4996626;28;20586;-77
2021/09/17 03:07:58;;;;;;;12.30;9.80;;;18.40;99.90;;;;;;4996327;28;20601;-75
2021/09/17 03:10:24;;;;;;;10.87;9.77;;;18.50;99.90;;;;;;4996416;28;20229;-75
2021/09/17 03:12:50;;;;;;;11.40;10.23;;;18.50;99.90;;;;;;5014298;28;20225;-76
2021/09/17 03:15:16;;;;;;;10.27;9.27;;;18.50;99.90;;;;;;5012847;28;20257;-76
2021/09/17 03:17:44;;;;;;;11.50;10.40;;;18.50;99.90;;;;;;4996531;28;20190;-76
2021/09/17 03:20:11;;;;;;;12.47;10.63;;;18.50;99.90;;;;;;5012787;28;20571;-76
2021/09/17 03:22:37;;;;;;;10.83;9.83;;;18.50;99.90;;;;;;5014060;28;20667;-76
2021/09/17 03:25:03;;;;;;;12.10;10.37;;;18.50;99.90;;;;;;5014149;28;20606;-76
2021/09/17 03:27:29;;;;;;;10.80;9.90;;;18.50;99.90;;;;;;5013363;28;20194;-76
2021/09/17 03:29:55;;;;;;;13.30;9.90;;;18.50;99.90;;;;;;4980256;28;21161;-76
2021/09/17 03:32:20;;;;;;;12.10;10.27;;;18.50;99.90;;;;;;4996072;28;20198;-76
2021/09/17 03:34:46;;;;;;;10.20;9.10;;;18.50;99.90;;;;;;4996547;28;20205;-76
2021/09/17 03:37:13;;;;;;;12.00;10.80;;;18.50;99.90;;;;;;5000026;28;20189;-76
2021/09/17 03:39:39;;;;;;;11.93;10.73;;;18.50;99.90;;;;;;5012752;28;20178;-77
2021/09/17 03:42:05;;;;;;;11.43;10.33;;;18.50;99.90;;;;;;5005627;28;20803;-78
2021/09/17 03:44:31;;;;;;;13.20;9.80;;;18.50;99.90;;;;;;4996472;28;20588;-77
2021/09/17 03:46:57;;;;;;;13.70;11.30;;;18.50;99.90;;;;;;4996139;28;20657;-77
2021/09/17 03:49:23;;;;;;;18.90;12.40;;;18.50;99.90;;;;;;5013492;28;20206;-77
2021/09/17 03:51:49;;;;;;;12.10;10.90;;;18.50;99.90;;;;;;5013638;28;20209;-77
2021/09/17 03:54:14;;;;;;;13.00;10.87;;;18.50;99.90;;;;;;5013356;28;20573;-77
2021/09/17 03:56:40;;;;;;;11.03;9.97;;;18.50;99.90;;;;;;5013477;28;20177;-77
2021/09/17 03:59:06;;;;;;;10.30;9.27;;;18.50;99.90;;;;;;4995513;28;20557;-77
2021/09/17 04:01:31;;;;;;;8.23;7.53;;;18.50;99.90;;;;;;5013479;28;20172;-77
2021/09/17 04:03:57;;;;;;;8.97;8.07;;;18.50;99.90;;;;;;5012986;28;20265;-76
2021/09/17 04:06:23;;;;;;;9.30;8.40;;;18.50;99.90;;;;;;4995654;28;20616;-77
2021/09/17 04:08:48;;;;;;;9.30;8.10;;;18.50;99.90;;;;;;4994456;28;20190;-77
2021/09/17 04:11:14;;;;;;;8.97;7.47;;;18.50;99.90;;;;;;4978690;28;20169;-77
2021/09/17 04:13:40;;;;;;;7.63;6.97;;;18.60;99.90;;;;;;5012932;28;20263;-77
2021/09/17 04:16:05;;;;;;;7.53;6.07;;;18.60;99.90;;;;;;4995661;28;20174;-77
2021/09/17 04:18:31;;;;;;;8.00;7.17;;;18.60;99.90;;;;;;5012315;28;20291;-77
2021/09/17 04:20:57;;;;;;;7.80;6.20;;;18.50;99.90;;;;;;5013064;28;20317;-78
2021/09/17 04:23:23;;;;;;;8.00;6.60;;;18.60;99.90;;;;;;4995557;28;20171;-78
2021/09/17 04:25:48;;;;;;;7.73;6.43;;;18.50;99.90;;;;;;5012691;28;20178;-77
2021/09/17 04:28:14;;;;;;;7.10;6.30;;;18.50;99.90;;;;;;5012453;28;20288;-76
2021/09/17 04:30:40;;;;;;;8.60;7.03;;;18.50;99.90;;;;;;4994906;28;20229;-77
2021/09/17 04:33:05;;;;;;;8.30;6.80;;;18.50;99.90;;;;;;4995172;28;20288;-76
2021/09/17 04:35:31;;;;;;;8.10;6.90;;;18.50;99.90;;;;;;5012681;28;20685;-76
2021/09/17 04:37:57;;;;;;;8.47;6.60;;;18.50;99.90;;;;;;4978688;28;20689;-77
2021/09/17 04:40:23;;;;;;;8.47;6.10;;;18.50;99.90;;;;;;4994934;28;20543;-76
2021/09/17 04:42:50;;;;;;;9.13;6.63;;;18.50;99.90;;;;;;5012530;28;20228;-76
2021/09/17 04:45:16;;;;;;;8.10;5.73;;;18.50;99.90;;;;;;5012482;28;20563;-76
2021/09/17 04:47:42;;;;;;;6.93;6.07;;;18.50;99.90;;;;;;5012116;28;21045;-76
2021/09/17 04:50:08;;;;;;;12.10;6.17;;;18.50;99.90;;;;;;4978412;28;20612;-77
2021/09/17 04:52:34;;;;;;;6.37;5.80;;;18.50;99.90;;;;;;4994837;28;20281;-77
2021/09/17 04:55:00;;;;;;;7.10;6.50;;;18.50;99.90;;;;;;5012300;28;20660;-76
2021/09/17 04:57:27;;;;;;;7.07;6.20;;;18.40;99.90;;;;;;5012016;28;20186;-77
2021/09/17 04:59:53;;;;;;;11.13;6.60;;;18.40;99.90;;;;;;4994798;28;20576;-77
2021/09/17 05:02:19;;;;;;;8.93;6.60;;;18.40;99.90;;;;;;5011883;28;21184;-77
2021/09/17 05:04:45;;;;;;;6.57;5.93;;;18.40;99.90;;;;;;5012516;28;20668;-78
2021/09/17 05:07:11;;;;;;;7.37;5.80;;;18.40;99.90;;;;;;5012017;28;20574;-78
2021/09/17 05:09:38;;;;;;;8.50;6.50;;;18.40;99.90;;;;;;5011890;28;20598;-78
2021/09/17 05:12:04;;;;;;;9.60;6.57;;;18.40;99.90;;;;;;4994513;28;20573;-78
2021/09/17 05:14:30;;;;;;;7.67;6.80;;;18.40;99.90;;;;;;4977993;28;21129;-78
2021/09/17 05:16:56;;;;;;;7.53;6.37;;;18.40;99.90;;;;;;4993984;28;20566;-77
2021/09/17 05:19:25;;;;;;;7.00;6.17;;;18.40;99.90;;;;;;5011671;28;20515;-77
2021/09/17 05:21:54;;;;;;;7.57;6.67;;;18.40;99.90;;;;;;4994400;28;20170;-77
2021/09/17 05:24:21;;;;;;;8.50;5.27;;;18.40;99.90;;;;;;5012108;28;20903;-77
2021/09/17 05:26:47;;;;;;;6.33;5.73;;;18.40;99.90;;;;;;4994260;28;20569;-78
2021/09/17 05:29:13;;;;;;;8.83;6.33;;;18.40;99.90;;;;;;5011490;28;20693;-76
2021/09/17 05:31:39;;;;;;;7.90;6.77;;;18.40;99.90;;;;;;4993753;28;20639;-76
2021/09/17 05:34:04;;;;;;;8.77;6.67;;;18.40;99.90;;;;;;5011546;28;20198;-77
2021/09/17 05:36:30;;;;;;;8.67;7.17;;;18.40;99.90;;;;;;4977970;28;20170;-77
2021/09/17 05:38:56;;;;;;;7.37;6.67;;;18.40;99.90;;;;;;4993359;28;20584;-78
2021/09/17 05:41:22;;;;;;;9.63;6.77;;;18.30;99.90;;;;;;5011805;28;20584;-78
2021/09/17 05:43:47;;;;;;;7.90;6.67;;;18.30;99.90;;;;;;5011659;28;20170;-78
2021/09/17 05:46:13;;;;;;;9.70;7.27;;;18.40;99.90;;;;;;4994131;28;20215;-78
2021/09/17 05:48:39;;;;;;;7.10;6.13;;;18.40;99.90;;;;;;5010785;28;20244;-77
2021/09/17 05:51:04;;;;;;;8.50;7.13;;;18.50;99.90;;;;;;5011649;28;20170;-76
2021/09/17 05:53:33;;;;;;;9.60;6.83;;;18.50;99.90;;;;;;5011556;28;20198;-78
2021/09/17 05:55:59;;;;;;;6.53;5.93;;;18.50;99.90;;;;;;5011576;28;20225;-78
2021/09/17 05:58:30;;;;;;;7.83;6.93;;;18.50;99.90;;;;;;5010812;28;20597;-78
2021/09/17 06:00:56;;;;;;;13.52;10.63;;;18.50;99.90;;;;;;4992871;28;20812;-76
2021/09/17 06:03:22;;;;;;;7.60;6.90;;;18.40;99.90;;;;;;4994484;28;20576;-77
2021/09/17 06:05:47;;;;;;;9.93;7.03;;;18.50;99.90;;;;;;5010207;28;20565;-77
2021/09/17 06:08:14;;;;;;;8.40;7.10;;;18.60;99.90;;;;;;5009713;28;20281;-77
2021/09/17 06:10:39;;;;;;;8.00;7.03;;;18.60;99.90;;;;;;5010550;28;20612;-77
2021/09/17 06:13:05;;;;;;;7.83;7.13;;;18.70;99.90;;;;;;5011486;28;20202;-77
2021/09/17 06:15:31;;;;;;;8.37;7.20;;;18.70;99.90;;;;;;5013729;28;20181;-79
2021/09/17 06:17:57;;;;;;;11.40;7.30;;;18.70;99.90;;;;;;4994799;28;20681;-79
2021/09/17 06:20:22;;;;;;;11.10;9.73;;;18.80;99.90;;;;;;4996809;28;20728;-78
2021/09/17 06:22:53;;;;;;;8.80;7.90;;;18.70;99.90;;;;;;5014827;28;21259;-78
2021/09/17 06:25:20;;;;;;;6.60;5.97;;;18.80;99.90;;;;;;5014772;28;20173;-78
2021/09/17 06:27:47;;;;;;;8.43;6.40;;;18.80;99.90;;;;;;5014553;28;20593;-77
2021/09/17 06:30:13;;;;;;;10.27;7.50;;;18.90;99.90;;;;;;5014626;28;20600;-78
2021/09/17 06:32:39;;;;;;;7.87;5.90;;;18.90;99.90;;;;;;4997135;28;20619;-76
2021/09/17 06:35:06;;;;;;;9.97;7.17;;;19.00;99.90;;;;;;4996882;28;20585;-75
2021/09/17 06:37:32;;;;;;;7.30;6.60;;;19.00;99.90;;;;;;5014199;28;20202;-76
2021/09/17 06:39:57;;;;;;;8.90;6.97;;;19.00;99.90;;;;;;5014480;28;20589;-76
2021/09/17 06:42:23;;;;;;;11.10;7.00;;;19.10;99.90;;;;;;5014479;28;20714;-77
2021/09/17 06:44:48;;;;;;;10.00;6.80;;;19.10;99.90;;;;;;5014577;28;20182;-76
2021/09/17 06:47:14;;;;;;;11.43;5.83;;;19.10;99.90;;;;;;4996821;28;20192;-77
2021/09/17 06:49:40;;;;;;;11.23;7.37;;;19.10;99.90;;;;;;5014611;28;20787;-82
2021/09/17 06:52:06;;;;;;;13.30;8.03;;;19.10;99.90;;;;;;4997643;28;20601;-82
2021/09/17 06:54:32;;;;;;;7.30;6.00;;;19.20;99.90;;;;;;4998744;28;20613;-82
2021/09/17 06:56:58;;;;;;;11.13;7.37;;;19.10;99.90;;;;;;4997759;28;20612;-84
2021/09/17 06:59:23;;;;;;;11.77;7.90;;;19.10;99.90;;;;;;4980906;28;20167;-83
2021/09/17 07:01:49;;;;;;;7.47;6.43;;;19.10;99.90;;;;;;5018815;28;20184;-84
2021/09/17 07:04:15;;;;;;;10.50;7.43;;;19.20;99.90;;;;;;4979444;28;20253;-84
2021/09/17 07:06:41;;;;;;;14.70;7.63;;;19.20;99.90;;;;;;4979936;28;20733;-83
2021/09/17 07:09:07;;;;;;;10.70;7.90;;;19.30;99.90;;;;;;4980060;28;20876;-83
2021/09/17 07:11:32;;;;;;;8.60;6.90;;;19.30;99.90;;;;;;4979677;28;20186;-84
2021/09/17 07:13:58;;;;;;;11.97;8.07;;;19.30;99.90;;;;;;4998308;28;20202;-84
2021/09/17 07:16:24;;;;;;;9.83;7.10;;;19.40;99.90;;;;;;4999828;28;20167;-84
2021/09/17 07:18:56;;;;;;;9.60;8.60;;;19.40;99.90;;;;;;5017048;28;20186;-82
2021/09/17 07:21:23;;;;;;;11.93;8.27;;;19.40;99.90;;;;;;5000333;28;20236;-83
2021/09/17 07:23:49;;;;;;;10.20;8.20;;;19.40;99.90;;;;;;5016130;28;20577;-83
2021/09/17 07:26:14;;;;;;;8.23;7.43;;;19.50;99.90;;;;;;5016556;28;20611;-81
2021/09/17 07:28:40;;;;;;;10.30;7.87;;;19.50;99.90;;;;;;4983750;28;20194;-80
2021/09/17 07:31:06;;;;;;;9.40;8.33;;;19.40;99.90;;;;;;4989486;28;20194;-81
2021/09/17 07:33:31;;;;;;;9.50;8.50;;;19.40;99.90;;;;;;5006654;28;20765;-81
2021/09/17 07:36:00;;;;;;;10.07;8.20;;;19.40;99.90;;;;;;5008849;28;20250;-80
2021/09/17 07:38:26;;;;;;;13.07;8.80;;;19.40;99.90;;;;;;5001206;28;20929;-82
2021/09/17 07:40:52;;;;;;;8.90;7.80;;;19.40;99.90;;;;;;5018837;28;20576;-82
2021/09/17 07:43:18;;;;;;;9.07;7.80;;;19.50;99.90;;;;;;5014830;28;20565;-80
2021/09/17 07:45:44;;;;;;;8.73;7.93;;;19.50;99.90;;;;;;5020272;28;20162;-83
2021/09/17 07:48:09;;;;;;;11.80;8.77;;;19.60;99.90;;;;;;5020599;28;20182;-82
2021/09/17 07:50:35;;;;;;;12.27;8.37;;;19.60;99.90;;;;;;5001686;28;20174;-81
2021/09/17 07:53:01;;;;;;;10.20;7.70;;;19.60;99.90;;;;;;5021580;28;20205;-81
2021/09/17 07:55:32;;;;;;;10.97;8.20;;;19.70;99.90;;;;;;4988293;28;20592;-83
2021/09/17 07:57:59;;;;;;;8.90;7.87;;;19.70;99.90;;;;;;4984551;28;20613;-80
2021/09/17 08:00:25;;;;;;;14.10;7.90;;;19.70;99.90;;;;;;5014158;28;20593;-83
2021/09/17 08:02:51;;;;;;;8.07;7.27;;;19.80;99.90;;;;;;4985585;28;20593;-83
2021/09/17 08:05:17;;;;;;;8.57;7.40;;;19.80;99.90;;;;;;5002802;28;20174;-84
2021/09/17 08:07:43;;;;;;;10.13;6.93;;;19.90;99.90;;;;;;5003566;28;20655;-85
2021/09/17 08:10:09;;;;;;;9.13;8.23;;;19.90;99.90;;;;;;4993094;28;20562;-84
2021/09/17 08:12:35;;;;;;;9.40;7.80;;;20.00;99.90;;;;;;5001884;28;20619;-85
2021/09/17 08:15:02;;;;;;;9.73;8.17;;;20.10;99.90;;;;;;5003793;28;20981;-80
2021/09/17 08:17:28;;;;;;;9.80;8.20;;;20.10;99.90;;;;;;5001141;28;20617;-80
2021/09/17 08:19:54;;;;;;;9.93;7.53;;;20.20;99.90;;;;;;5001273;28;20661;-79
2021/09/17 08:22:19;;;;;;;10.93;7.73;;;20.20;99.90;;;;;;5003244;28;20237;-81
2021/09/17 08:24:45;;;;;;;11.00;9.57;;;20.30;99.90;;;;;;5022593;28;20174;-82
2021/09/17 08:27:11;;;;;;;10.60;7.60;;;20.30;99.90;;;;;;5041207;23;20363;-81
2021/09/17 08:29:37;;;;;;;15.23;7.93;;;20.30;99.90;;;;;;5031250;28;20664;-81
2021/09/17 08:32:03;;;;;;;9.00;7.10;;;20.20;99.90;;;;;;5014319;28;20633;-81
2021/09/17 08:34:28;;;;;;;8.13;6.20;;;20.20;99.90;;;;;;5013632;28;20173;-83
2021/09/17 08:36:55;;;;;;;11.00;7.97;;;20.10;99.90;;;;;;5013778;28;21019;-82
2021/09/17 08:39:21;;;;;;;14.53;10.30;;;20.00;99.90;;;;;;5031123;28;20666;-81
2021/09/17 08:41:47;;;;;;;8.50;6.37;;;19.90;99.90;;;;;;4974541;28;21227;-81
2021/09/17 08:44:14;;;;;;;7.60;6.80;;;19.80;99.90;;;;;;4997201;28;20691;-82
2021/09/17 08:46:42;;;;;;;9.50;8.60;;;19.80;99.90;;;;;;5013663;28;20652;-82
2021/09/17 08:49:12;;;;;;;11.47;7.90;;;19.80;99.90;;;;;;5015594;28;20577;-82
2021/09/17 08:51:47;;;;;;;12.57;8.67;;;19.70;99.90;;;;;;5014451;28;20581;-82
2021/09/17 08:54:15;;;;;;;9.80;8.90;;;19.70;99.90;;;;;;4992184;28;20655;-80
2021/09/17 08:56:40;;;;;;;8.63;7.77;;;19.60;99.90;;;;;;5016572;28;20608;-81
2021/09/17 08:59:06;;;;;;;9.67;8.67;;;19.60;99.90;;;;;;4997739;28;20204;-82
2021/09/17 09:01:36;;;;;;;15.00;8.50;;;19.60;99.90;;;;;;5032030;28;20181;-82
2021/09/17 09:04:07;;;;;;;10.17;9.17;;;19.60;99.90;;;;;;5032276;28;20174;-82
2021/09/17 09:06:38;;;;;;;8.57;7.70;;;19.60;99.90;;;;;;5014948;28;20971;-82
2021/09/17 09:09:18;;;;;;;9.93;8.17;;;19.70;99.90;;;;;;5001393;28;21147;-82
2021/09/17 09:11:54;;;;;;;9.00;8.10;;;19.80;99.90;;;;;;5015205;28;20638;-82
2021/09/17 09:14:20;;;;;;;13.80;9.00;;;19.90;99.90;;;;;;5032657;28;20628;-82
2021/09/17 09:16:49;;;;;;;12.10;7.97;;;19.90;99.90;;;;;;5015352;28;20584;-80
2021/09/17 09:19:23;;;;;;;10.90;8.00;;;19.90;99.90;;;;;;4997346;28;20637;-81
2021/09/17 09:22:02;;;;;;;9.10;8.27;;;20.00;99.90;;;;;;4997424;28;20625;-80
2021/09/17 09:24:33;;;;;;;9.60;8.30;;;20.10;99.90;;;;;;5013390;28;20595;-82
2021/09/17 09:27:25;;;;;;;9.13;8.23;;;20.10;99.90;;;;;;5013636;28;20620;-83
2021/09/17 09:29:52;;;;;;;9.63;7.37;;;20.20;99.90;;;;;;4992701;28;20592;-83
2021/09/17 09:32:47;;;;;;;9.27;8.20;;;20.30;99.90;;;;;;5033715;28;20564;-82
2021/09/17 09:35:14;;;;;;;8.10;7.30;;;20.40;99.90;;;;;;5010118;28;20588;-81
2021/09/17 09:37:40;;;;;;;9.27;7.20;;;20.60;99.90;;;;;;5013211;28;20730;-82
2021/09/17 09:40:09;;;;;;;9.00;7.77;;;20.70;99.90;;;;;;4997368;28;20568;-82
2021/09/17 09:42:42;;;;;;;8.70;7.90;;;20.70;99.90;;;;;;4997126;28;20579;-83
2021/09/17 09:45:22;;;;;;;9.10;7.67;;;20.70;99.90;;;;;;5013848;28;20579;-82
2021/09/17 09:47:50;;;;;;;9.10;7.90;;;20.80;99.90;;;;;;5013358;28;20584;-81
2021/09/17 09:50:23;;;;;;;6.70;6.10;;;20.80;99.90;;;;;;5034915;28;20621;-80
2021/09/17 09:52:51;;;;;;;9.63;7.20;;;20.90;99.90;;;;;;5017611;28;20789;-81
2021/09/17 09:55:17;;;;;;;10.10;7.63;;;21.00;99.90;;;;;;5017712;28;20564;-82
2021/09/17 09:57:43;;;;;;;7.90;7.20;;;21.20;99.90;;;;;;5017043;28;20568;-81
2021/09/17 10:00:10;;;;;;;7.97;7.27;;;21.30;99.90;;;;;;5017723;28;20569;-82
2021/09/17 10:02:41;;;;;;;9.33;7.10;;;21.50;99.90;;;;;;5017058;28;20581;-82
2021/09/17 10:05:09;;;;;;;7.70;6.63;;;21.70;99.90;;;;;;5035139;28;20568;-80
2021/09/17 10:07:35;;;;;;;8.23;7.07;;;22.00;99.90;;;;;;5000464;28;20734;-80
2021/09/17 10:10:04;;;;;;;9.00;7.60;;;22.10;99.90;;;;;;5007404;28;20596;-81
2021/09/17 10:12:30;;;;;;;7.50;6.70;;;22.30;99.90;;;;;;5034780;28;20624;-84
2021/09/17 10:14:57;;;;;;;8.10;7.30;;;22.60;99.90;;;;;;5017128;28;20572;-82
2021/09/17 10:17:32;;;;;;;11.17;7.10;;;23.00;99.90;;;;;;5017051;28;20189;-81
2021/09/17 10:19:59;;;;;;;8.10;7.30;;;23.40;99.90;;;;;;5001045;28;20935;-81
2021/09/17 10:22:31;;;;;;;8.10;7.27;;;24.10;99.90;;;;;;5034685;28;20627;-81
2021/09/17 10:25:04;;;;;;;10.13;8.47;;;24.80;99.90;;;;;;5016866;28;20675;-82
2021/09/17 10:27:30;;;;;;;7.70;7.00;;;25.60;99.90;;;;;;5034281;28;20659;-83
2021/09/17 10:30:02;;;;;;;7.80;6.70;;;26.20;99.90;;;;;;5034712;28;20656;-81
2021/09/17 10:32:31;;;;;;;8.77;7.97;;;26.90;99.90;;;;;;5035414;28;20208;-82
2021/09/17 10:35:10;;;;;;;8.90;7.23;;;27.60;99.90;;;;;;5034786;28;20566;-80
2021/09/17 10:38:05;;;;;;;6.87;6.13;;;28.10;99.90;;;;;;5034623;28;20931;-82
2021/09/17 10:40:40;;;;;;;7.07;6.47;;;28.40;99.90;;;;;;5018362;28;20672;-83
2021/09/17 10:43:08;;;;;;;8.13;7.00;;;28.90;99.90;;;;;;5016880;28;21162;-81
2021/09/17 10:45:38;;;;;;;6.93;6.33;;;29.20;99.90;;;;;;5021491;28;20564;-81
2021/09/17 10:48:07;;;;;;;7.03;6.43;;;29.60;99.90;;;;;;5017828;28;20597;-80
2021/09/17 10:50:52;;;;;;;7.53;6.93;;;30.00;99.90;;;;;;5034926;28;20564;-80
2021/09/17 10:53:39;;;;;;;7.13;6.47;;;30.20;99.90;;;;;;5033999;28;20661;-80
2021/09/17 10:56:11;;;;;;;8.57;6.70;;;30.60;99.90;;;;;;4999608;28;20602;-80
2021/09/17 10:58:41;;;;;;;6.80;6.23;;;30.90;99.90;;;;;;5033500;28;20574;-80
2021/09/17 11:01:12;;;;;;;7.03;5.77;;;31.20;99.90;;;;;;5015306;28;20631;-80
2021/09/17 11:03:40;;;;;;;7.40;6.70;;;31.50;99.90;;;;;;5033524;28;20564;-80
2021/09/17 11:06:18;;;;;;;6.87;5.80;;;31.80;99.90;;;;;;5034214;28;20702;-80
2021/09/17 11:08:47;;;;;;;7.63;6.93;;;32.00;99.90;;;;;;5034032;28;20909;-81
2021/09/17 11:11:38;;;;;;;9.30;8.27;;;32.40;99.90;;;;;;5035262;28;20561;-82
2021/09/17 11:14:06;;;;;;;8.33;7.53;;;32.50;99.90;;;;;;5016645;28;20642;-81
2021/09/17 11:16:33;;;;;;;9.37;8.47;;;32.80;99.90;;;;;;5018949;28;20935;-80
2021/09/17 11:19:01;;;;;;;8.97;7.40;;;33.00;98.90;;;;;;5016799;28;20986;-80
2021/09/17 11:21:29;;;;;;;7.80;7.00;;;33.10;97.80;;;;;;5017408;28;20908;-80
2021/09/17 11:23:57;;;;;;;7.50;6.90;;;33.20;96.80;;;;;;5018772;28;20634;-81
2021/09/17 11:26:33;;;;;;;7.93;7.20;;;33.20;96.00;;;;;;5016335;28;20710;-81
2021/09/17 11:29:06;;;;;;;9.47;7.30;;;33.30;95.10;;;;;;5025480;28;20664;-81
2021/09/17 11:31:39;;;;;;;7.50;6.80;;;33.20;93.50;;;;;;5016467;28;20678;-80
2021/09/17 11:34:08;;;;;;;8.60;7.90;;;33.10;92.50;;;;;;4999674;28;20707;-80
2021/09/17 11:36:37;;;;;;;7.30;6.60;;;32.90;92.10;;;;;;5016472;28;20634;-81
2021/09/17 11:39:32;;;;;;;6.60;6.00;;;32.70;92.00;;;;;;5033257;28;20575;-80
2021/09/17 11:42:05;;;;;;;7.17;6.60;;;32.60;91.60;;;;;;5021508;28;20929;-80
2021/09/17 11:44:40;;;;;;;8.47;6.20;;;32.50;91.70;;;;;;5033341;28;20599;-80
2021/09/17 11:47:11;;;;;;;7.63;6.67;;;32.50;91.60;;;;;;5061416;28;20626;-81
2021/09/17 11:49:43;;;;;;;7.90;7.20;;;32.50;91.80;;;;;;5048737;28;20582;-82
2021/09/17 11:52:17;;;;;;;8.20;7.50;;;32.50;90.60;;;;;;5044760;28;20939;-81
2021/09/17 11:55:07;;;;;;;6.57;6.03;;;32.30;89.80;;;;;;5041789;28;20723;-81
2021/09/17 11:57:41;;;;;;;6.43;5.83;;;32.10;89.60;;;;;;5056159;28;20614;-81
2021/09/17 12:00:17;;;;;;;8.20;7.10;;;32.00;89.90;;;;;;5043514;28;20590;-81
2021/09/17 12:02:45;;;;;;;8.10;7.40;;;31.80;89.60;;;;;;5031783;28;20637;-81
2021/09/17 12:05:20;;;;;;;7.23;6.53;;;31.80;89.30;;;;;;5053369;28;20587;-81
2021/09/17 12:07:49;;;;;;;7.97;7.37;;;31.60;86.60;;;;;;5006709;28;20604;-81
2021/09/17 12:10:20;;;;;;;6.77;6.07;;;31.40;87.20;;;;;;5033797;28;20598;-81
2021/09/17 12:12:47;;;;;;;7.47;6.77;;;31.20;86.70;;;;;;5040147;28;20631;-80
2021/09/17 12:15:25;;;;;;;7.50;6.83;;;31.00;86.90;;;;;;5031932;28;20632;-81
2021/09/17 12:17:56;;;;;;;7.00;6.40;;;30.80;87.40;;;;;;5057008;28;20572;-81
2021/09/17 12:20:36;;;;;;;7.10;6.50;;;30.80;88.00;;;;;;5028755;28;20607;-81
2021/09/17 12:23:02;;;;;;;7.27;6.57;;;30.70;88.40;;;;;;5032058;28;20580;-81
2021/09/17 12:25:29;;;;;;;7.80;7.13;;;30.70;88.40;;;;;;5028110;28;20568;-82
2021/09/17 12:27:59;;;;;;;7.17;6.47;;;30.70;87.90;;;;;;5021483;28;20187;-81
2021/09/17 12:30:30;;;;;;;7.17;6.47;;;30.80;88.30;;;;;;5021916;28;20595;-82
2021/09/17 12:33:23;;;;;;;6.83;6.23;;;30.90;88.80;;;;;;5003355;28;20679;-82
2021/09/17 12:35:54;;;;;;;5.50;5.00;;;31.00;88.50;;;;;;4977600;28;20714;-82
2021/09/17 12:38:23;;;;;;;6.00;5.50;;;31.20;87.50;;;;;;5000436;28;20637;-82
2021/09/17 12:40:52;;;;;;;6.63;6.00;;;31.20;86.80;;;;;;5018416;28;20562;-81
2021/09/17 12:43:29;;;;;;;6.63;6.10;;;31.20;84.40;;;;;;4999970;28;20582;-82
2021/09/17 12:46:00;;;;;;;6.60;6.10;;;31.00;82.80;;;;;;4997766;28;20708;-81